sensor_id;sensor_type;location;lat;lon;timestamp;P1;durP1;ratioP1;P2;durP2;ratioP2
40827;SDS011;26549;50.918;5.338;2023-05-07T00:00:11;5.85;;;3.75;;
40827;SDS011;26549;50.918;5.338;2023-05-07T00:02:40;4.90;;;4.00;;
40827;SDS011;26549;50.918;5.338;2023-05-07T00:05:06;4.97;;;3.60;;
40827;SDS011;26549;50.918;5.338;2023-05-07T00:07:32;4.28;;;3.40;;
40827;SDS011;26549;50.918;5.338;2023-05-07T00:09:58;5.85;;;4.78;;
40827;SDS011;26549;50.918;5.338;2023-05-07T00:12:24;4.90;;;4.40;;
40827;SDS011;26549;50.918;5.338;2023-05-07T00:14:50;5.20;;;3.83;;
40827;SDS011;26549;50.918;5.338;2023-05-07T00:17:16;6.90;;;4.05;;
40827;SDS011;26549;50.918;5.338;2023-05-07T00:19:41;4.35;;;3.58;;
40827;SDS011;26549;50.918;5.338;2023-05-07T00:22:07;8.05;;;4.05;;
40827;SDS011;26549;50.918;5.338;2023-05-07T00:24:33;5.22;;;3.53;;
40827;SDS011;26549;50.918;5.338;2023-05-07T00:26:59;4.32;;;3.90;;
40827;SDS011;26549;50.918;5.338;2023-05-07T00:29:25;7.50;;;3.92;;
40827;SDS011;26549;50.918;5.338;2023-05-07T00:31:51;4.07;;;3.53;;
40827;SDS011;26549;50.918;5.338;2023-05-07T00:34:19;5.20;;;4.15;;
40827;SDS011;26549;50.918;5.338;2023-05-07T00:36:45;4.63;;;3.60;;
40827;SDS011;26549;50.918;5.338;2023-05-07T00:39:11;5.50;;;3.70;;
40827;SDS011;26549;50.918;5.338;2023-05-07T00:41:36;4.28;;;3.58;;
40827;SDS011;26549;50.918;5.338;2023-05-07T00:44:02;6.82;;;3.60;;
40827;SDS011;26549;50.918;5.338;2023-05-07T00:46:28;4.18;;;3.40;;
40827;SDS011;26549;50.918;5.338;2023-05-07T00:48:55;6.05;;;4.03;;
40827;SDS011;26549;50.918;5.338;2023-05-07T00:51:22;7.35;;;4.55;;
40827;SDS011;26549;50.918;5.338;2023-05-07T00:53:50;5.63;;;3.90;;
40827;SDS011;26549;50.918;5.338;2023-05-07T00:56:16;5.68;;;4.32;;
40827;SDS011;26549;50.918;5.338;2023-05-07T00:58:42;4.22;;;3.72;;
40827;SDS011;26549;50.918;5.338;2023-05-07T01:01:08;6.82;;;4.22;;
40827;SDS011;26549;50.918;5.338;2023-05-07T01:03:34;6.72;;;4.45;;
40827;SDS011;26549;50.918;5.338;2023-05-07T01:06:00;5.93;;;3.90;;
40827;SDS011;26549;50.918;5.338;2023-05-07T01:08:27;7.70;;;4.35;;
40827;SDS011;26549;50.918;5.338;2023-05-07T01:10:55;5.05;;;4.03;;
40827;SDS011;26549;50.918;5.338;2023-05-07T01:13:22;6.63;;;4.18;;
40827;SDS011;26549;50.918;5.338;2023-05-07T01:15:49;8.23;;;4.57;;
40827;SDS011;26549;50.918;5.338;2023-05-07T01:18:15;12.07;;;4.00;;
40827;SDS011;26549;50.918;5.338;2023-05-07T01:20:41;6.75;;;4.40;;
40827;SDS011;26549;50.918;5.338;2023-05-07T01:23:07;5.57;;;4.30;;
40827;SDS011;26549;50.918;5.338;2023-05-07T01:25:35;7.13;;;5.47;;
40827;SDS011;26549;50.918;5.338;2023-05-07T01:28:01;6.47;;;4.03;;
40827;SDS011;26549;50.918;5.338;2023-05-07T01:30:27;5.88;;;4.07;;
40827;SDS011;26549;50.918;5.338;2023-05-07T01:33:08;5.85;;;4.10;;
40827;SDS011;26549;50.918;5.338;2023-05-07T01:35:37;4.95;;;4.10;;
40827;SDS011;26549;50.918;5.338;2023-05-07T01:38:05;10.68;;;3.88;;
40827;SDS011;26549;50.918;5.338;2023-05-07T01:40:32;7.03;;;4.35;;
40827;SDS011;26549;50.918;5.338;2023-05-07T01:42:59;5.63;;;3.80;;
40827;SDS011;26549;50.918;5.338;2023-05-07T01:45:27;5.32;;;4.30;;
40827;SDS011;26549;50.918;5.338;2023-05-07T01:47:53;6.15;;;3.90;;
40827;SDS011;26549;50.918;5.338;2023-05-07T01:50:20;5.55;;;3.90;;
40827;SDS011;26549;50.918;5.338;2023-05-07T01:52:46;8.63;;;4.53;;
40827;SDS011;26549;50.918;5.338;2023-05-07T01:55:14;3.83;;;3.33;;
40827;SDS011;26549;50.918;5.338;2023-05-07T01:57:40;6.35;;;4.40;;
40827;SDS011;26549;50.918;5.338;2023-05-07T02:00:06;4.10;;;3.70;;
40827;SDS011;26549;50.918;5.338;2023-05-07T02:02:34;4.70;;;3.67;;
40827;SDS011;26549;50.918;5.338;2023-05-07T02:05:00;5.22;;;3.97;;
40827;SDS011;26549;50.918;5.338;2023-05-07T02:07:26;4.63;;;3.45;;
40827;SDS011;26549;50.918;5.338;2023-05-07T02:09:52;5.03;;;3.88;;
40827;SDS011;26549;50.918;5.338;2023-05-07T02:12:20;5.63;;;4.20;;
40827;SDS011;26549;50.918;5.338;2023-05-07T02:14:46;7.05;;;3.63;;
40827;SDS011;26549;50.918;5.338;2023-05-07T02:17:12;5.63;;;4.38;;
40827;SDS011;26549;50.918;5.338;2023-05-07T02:19:38;4.38;;;3.70;;
40827;SDS011;26549;50.918;5.338;2023-05-07T02:22:03;8.65;;;5.78;;
40827;SDS011;26549;50.918;5.338;2023-05-07T02:24:30;5.50;;;4.10;;
40827;SDS011;26549;50.918;5.338;2023-05-07T02:26:56;9.73;;;5.15;;
40827;SDS011;26549;50.918;5.338;2023-05-07T02:29:22;9.10;;;4.45;;
40827;SDS011;26549;50.918;5.338;2023-05-07T02:31:47;8.02;;;4.70;;
40827;SDS011;26549;50.918;5.338;2023-05-07T02:34:16;9.38;;;5.55;;
40827;SDS011;26549;50.918;5.338;2023-05-07T02:36:42;9.07;;;5.50;;
40827;SDS011;26549;50.918;5.338;2023-05-07T02:39:08;6.93;;;4.63;;
40827;SDS011;26549;50.918;5.338;2023-05-07T02:41:35;7.68;;;5.05;;
40827;SDS011;26549;50.918;5.338;2023-05-07T02:44:00;5.05;;;4.20;;
40827;SDS011;26549;50.918;5.338;2023-05-07T02:46:26;5.50;;;4.35;;
40827;SDS011;26549;50.918;5.338;2023-05-07T02:48:52;4.88;;;4.20;;
40827;SDS011;26549;50.918;5.338;2023-05-07T02:51:19;11.85;;;5.05;;
40827;SDS011;26549;50.918;5.338;2023-05-07T02:53:46;6.57;;;5.00;;
40827;SDS011;26549;50.918;5.338;2023-05-07T02:56:13;6.20;;;4.53;;
40827;SDS011;26549;50.918;5.338;2023-05-07T02:58:39;7.60;;;4.70;;
40827;SDS011;26549;50.918;5.338;2023-05-07T03:01:05;6.85;;;4.68;;
40827;SDS011;26549;50.918;5.338;2023-05-07T03:03:31;8.43;;;4.38;;
40827;SDS011;26549;50.918;5.338;2023-05-07T03:05:57;6.53;;;4.35;;
40827;SDS011;26549;50.918;5.338;2023-05-07T03:08:23;8.50;;;5.45;;
40827;SDS011;26549;50.918;5.338;2023-05-07T03:10:49;5.70;;;4.47;;
40827;SDS011;26549;50.918;5.338;2023-05-07T03:13:15;9.18;;;5.07;;
40827;SDS011;26549;50.918;5.338;2023-05-07T03:15:41;9.98;;;5.20;;
40827;SDS011;26549;50.918;5.338;2023-05-07T03:18:07;5.18;;;4.50;;
40827;SDS011;26549;50.918;5.338;2023-05-07T03:20:33;4.35;;;3.65;;
40827;SDS011;26549;50.918;5.338;2023-05-07T03:22:59;9.38;;;5.88;;
40827;SDS011;26549;50.918;5.338;2023-05-07T03:25:25;5.35;;;4.78;;
40827;SDS011;26549;50.918;5.338;2023-05-07T03:27:50;5.15;;;4.25;;
40827;SDS011;26549;50.918;5.338;2023-05-07T03:30:17;7.30;;;4.28;;
40827;SDS011;26549;50.918;5.338;2023-05-07T03:32:43;7.60;;;4.60;;
40827;SDS011;26549;50.918;5.338;2023-05-07T03:35:09;7.13;;;5.15;;
40827;SDS011;26549;50.918;5.338;2023-05-07T03:37:35;5.82;;;5.15;;
40827;SDS011;26549;50.918;5.338;2023-05-07T03:40:01;6.25;;;4.18;;
40827;SDS011;26549;50.918;5.338;2023-05-07T03:42:28;4.97;;;4.53;;
40827;SDS011;26549;50.918;5.338;2023-05-07T03:44:54;8.93;;;4.90;;
40827;SDS011;26549;50.918;5.338;2023-05-07T03:47:20;7.03;;;4.72;;
40827;SDS011;26549;50.918;5.338;2023-05-07T03:49:45;5.95;;;4.63;;
40827;SDS011;26549;50.918;5.338;2023-05-07T03:52:11;5.93;;;4.65;;
40827;SDS011;26549;50.918;5.338;2023-05-07T03:54:37;5.70;;;4.28;;
40827;SDS011;26549;50.918;5.338;2023-05-07T03:57:03;6.60;;;4.78;;
40827;SDS011;26549;50.918;5.338;2023-05-07T03:59:28;5.70;;;4.30;;
40827;SDS011;26549;50.918;5.338;2023-05-07T04:01:54;6.38;;;4.65;;
40827;SDS011;26549;50.918;5.338;2023-05-07T04:04:20;6.65;;;4.80;;
40827;SDS011;26549;50.918;5.338;2023-05-07T04:06:46;5.90;;;4.95;;
40827;SDS011;26549;50.918;5.338;2023-05-07T04:09:12;5.32;;;4.50;;
40827;SDS011;26549;50.918;5.338;2023-05-07T04:11:37;5.82;;;4.95;;
40827;SDS011;26549;50.918;5.338;2023-05-07T04:14:05;8.77;;;4.55;;
40827;SDS011;26549;50.918;5.338;2023-05-07T04:16:31;5.07;;;4.53;;
40827;SDS011;26549;50.918;5.338;2023-05-07T04:18:57;6.70;;;4.57;;
40827;SDS011;26549;50.918;5.338;2023-05-07T04:21:23;6.07;;;5.30;;
40827;SDS011;26549;50.918;5.338;2023-05-07T04:23:49;6.13;;;4.78;;
40827;SDS011;26549;50.918;5.338;2023-05-07T04:26:15;12.77;;;5.80;;
40827;SDS011;26549;50.918;5.338;2023-05-07T04:28:41;7.50;;;5.05;;
40827;SDS011;26549;50.918;5.338;2023-05-07T04:31:07;7.22;;;5.60;;
40827;SDS011;26549;50.918;5.338;2023-05-07T04:33:33;7.57;;;4.53;;
40827;SDS011;26549;50.918;5.338;2023-05-07T04:36:03;6.57;;;5.60;;
40827;SDS011;26549;50.918;5.338;2023-05-07T04:38:32;8.07;;;5.88;;
40827;SDS011;26549;50.918;5.338;2023-05-07T04:41:04;9.88;;;5.65;;
40827;SDS011;26549;50.918;5.338;2023-05-07T04:43:31;7.03;;;5.43;;
40827;SDS011;26549;50.918;5.338;2023-05-07T04:45:57;9.18;;;5.28;;
40827;SDS011;26549;50.918;5.338;2023-05-07T04:48:23;7.63;;;5.55;;
40827;SDS011;26549;50.918;5.338;2023-05-07T04:50:49;9.48;;;5.65;;
40827;SDS011;26549;50.918;5.338;2023-05-07T04:53:16;8.23;;;6.30;;
40827;SDS011;26549;50.918;5.338;2023-05-07T04:55:42;7.07;;;6.10;;
40827;SDS011;26549;50.918;5.338;2023-05-07T04:58:09;10.30;;;6.47;;
40827;SDS011;26549;50.918;5.338;2023-05-07T05:00:35;8.95;;;6.28;;
40827;SDS011;26549;50.918;5.338;2023-05-07T05:03:01;7.55;;;5.85;;
40827;SDS011;26549;50.918;5.338;2023-05-07T05:05:27;6.95;;;5.80;;
40827;SDS011;26549;50.918;5.338;2023-05-07T05:07:52;7.55;;;5.18;;
40827;SDS011;26549;50.918;5.338;2023-05-07T05:10:18;7.63;;;6.03;;
40827;SDS011;26549;50.918;5.338;2023-05-07T05:12:44;7.72;;;5.43;;
40827;SDS011;26549;50.918;5.338;2023-05-07T05:15:11;10.13;;;6.13;;
40827;SDS011;26549;50.918;5.338;2023-05-07T05:17:37;8.73;;;5.70;;
40827;SDS011;26549;50.918;5.338;2023-05-07T05:20:04;6.18;;;5.15;;
40827;SDS011;26549;50.918;5.338;2023-05-07T05:22:30;6.35;;;5.07;;
40827;SDS011;26549;50.918;5.338;2023-05-07T05:24:57;8.60;;;6.30;;
40827;SDS011;26549;50.918;5.338;2023-05-07T05:27:22;5.78;;;4.80;;
40827;SDS011;26549;50.918;5.338;2023-05-07T05:29:48;5.43;;;4.90;;
40827;SDS011;26549;50.918;5.338;2023-05-07T05:32:14;5.75;;;5.18;;
40827;SDS011;26549;50.918;5.338;2023-05-07T05:34:40;5.90;;;5.18;;
40827;SDS011;26549;50.918;5.338;2023-05-07T05:37:06;5.95;;;4.88;;
40827;SDS011;26549;50.918;5.338;2023-05-07T05:39:31;6.00;;;4.43;;
40827;SDS011;26549;50.918;5.338;2023-05-07T05:41:57;6.25;;;4.97;;
40827;SDS011;26549;50.918;5.338;2023-05-07T05:44:23;5.60;;;4.82;;
40827;SDS011;26549;50.918;5.338;2023-05-07T05:46:50;8.70;;;4.70;;
40827;SDS011;26549;50.918;5.338;2023-05-07T05:49:16;7.72;;;5.30;;
40827;SDS011;26549;50.918;5.338;2023-05-07T05:51:42;5.30;;;4.80;;
40827;SDS011;26549;50.918;5.338;2023-05-07T05:54:08;7.28;;;4.75;;
40827;SDS011;26549;50.918;5.338;2023-05-07T05:56:34;5.70;;;4.88;;
40827;SDS011;26549;50.918;5.338;2023-05-07T05:59:00;6.22;;;3.97;;
40827;SDS011;26549;50.918;5.338;2023-05-07T06:01:26;4.85;;;3.80;;
40827;SDS011;26549;50.918;5.338;2023-05-07T06:03:53;4.93;;;4.25;;
40827;SDS011;26549;50.918;5.338;2023-05-07T06:06:18;5.00;;;4.25;;
40827;SDS011;26549;50.918;5.338;2023-05-07T06:08:44;6.78;;;4.65;;
40827;SDS011;26549;50.918;5.338;2023-05-07T06:11:10;6.60;;;4.70;;
40827;SDS011;26549;50.918;5.338;2023-05-07T06:13:36;5.07;;;4.45;;
40827;SDS011;26549;50.918;5.338;2023-05-07T06:16:02;5.50;;;4.35;;
40827;SDS011;26549;50.918;5.338;2023-05-07T06:18:28;5.38;;;4.57;;
40827;SDS011;26549;50.918;5.338;2023-05-07T06:20:54;7.13;;;4.60;;
40827;SDS011;26549;50.918;5.338;2023-05-07T06:23:20;9.27;;;4.93;;
40827;SDS011;26549;50.918;5.338;2023-05-07T06:25:50;5.63;;;4.30;;
40827;SDS011;26549;50.918;5.338;2023-05-07T06:28:16;4.95;;;4.25;;
40827;SDS011;26549;50.918;5.338;2023-05-07T06:30:42;7.00;;;5.28;;
40827;SDS011;26549;50.918;5.338;2023-05-07T06:33:07;5.20;;;4.40;;
40827;SDS011;26549;50.918;5.338;2023-05-07T06:35:33;9.25;;;3.90;;
40827;SDS011;26549;50.918;5.338;2023-05-07T06:37:59;7.22;;;3.65;;
40827;SDS011;26549;50.918;5.338;2023-05-07T06:40:25;6.50;;;4.70;;
40827;SDS011;26549;50.918;5.338;2023-05-07T06:42:51;7.25;;;4.80;;
40827;SDS011;26549;50.918;5.338;2023-05-07T06:45:17;5.63;;;4.03;;
40827;SDS011;26549;50.918;5.338;2023-05-07T06:47:44;7.45;;;4.85;;
40827;SDS011;26549;50.918;5.338;2023-05-07T06:50:10;7.57;;;4.07;;
40827;SDS011;26549;50.918;5.338;2023-05-07T06:52:36;8.57;;;5.05;;
40827;SDS011;26549;50.918;5.338;2023-05-07T06:55:01;8.57;;;3.70;;
40827;SDS011;26549;50.918;5.338;2023-05-07T06:57:27;7.45;;;3.88;;
40827;SDS011;26549;50.918;5.338;2023-05-07T06:59:53;7.55;;;4.40;;
40827;SDS011;26549;50.918;5.338;2023-05-07T07:02:19;5.85;;;3.78;;
40827;SDS011;26549;50.918;5.338;2023-05-07T07:04:45;9.40;;;4.25;;
40827;SDS011;26549;50.918;5.338;2023-05-07T07:07:10;4.85;;;4.10;;
40827;SDS011;26549;50.918;5.338;2023-05-07T07:09:37;8.10;;;4.22;;
40827;SDS011;26549;50.918;5.338;2023-05-07T07:12:03;4.05;;;3.33;;
40827;SDS011;26549;50.918;5.338;2023-05-07T07:14:29;5.53;;;3.22;;
40827;SDS011;26549;50.918;5.338;2023-05-07T07:16:54;3.75;;;2.53;;
40827;SDS011;26549;50.918;5.338;2023-05-07T07:19:20;5.60;;;3.55;;
40827;SDS011;26549;50.918;5.338;2023-05-07T07:21:46;6.50;;;3.30;;
40827;SDS011;26549;50.918;5.338;2023-05-07T07:24:12;4.95;;;2.88;;
40827;SDS011;26549;50.918;5.338;2023-05-07T07:26:44;2.67;;;2.45;;
40827;SDS011;26549;50.918;5.338;2023-05-07T07:29:10;2.90;;;2.60;;
40827;SDS011;26549;50.918;5.338;2023-05-07T07:31:35;5.05;;;3.25;;
40827;SDS011;26549;50.918;5.338;2023-05-07T07:34:01;5.57;;;2.63;;
40827;SDS011;26549;50.918;5.338;2023-05-07T07:36:27;6.68;;;3.17;;
40827;SDS011;26549;50.918;5.338;2023-05-07T07:38:53;4.50;;;2.78;;
40827;SDS011;26549;50.918;5.338;2023-05-07T07:41:19;6.20;;;4.03;;
40827;SDS011;26549;50.918;5.338;2023-05-07T07:43:45;3.88;;;2.97;;
40827;SDS011;26549;50.918;5.338;2023-05-07T07:46:11;4.60;;;3.58;;
40827;SDS011;26549;50.918;5.338;2023-05-07T07:48:37;4.70;;;2.75;;
40827;SDS011;26549;50.918;5.338;2023-05-07T07:51:03;4.00;;;2.92;;
40827;SDS011;26549;50.918;5.338;2023-05-07T07:53:30;4.45;;;2.80;;
40827;SDS011;26549;50.918;5.338;2023-05-07T07:55:56;6.65;;;2.75;;
40827;SDS011;26549;50.918;5.338;2023-05-07T07:58:22;3.20;;;2.72;;
40827;SDS011;26549;50.918;5.338;2023-05-07T08:00:50;5.07;;;3.13;;
40827;SDS011;26549;50.918;5.338;2023-05-07T08:03:16;3.45;;;2.63;;
40827;SDS011;26549;50.918;5.338;2023-05-07T08:05:42;3.70;;;2.63;;
40827;SDS011;26549;50.918;5.338;2023-05-07T08:08:08;3.80;;;2.53;;
40827;SDS011;26549;50.918;5.338;2023-05-07T08:10:34;3.38;;;2.38;;
40827;SDS011;26549;50.918;5.338;2023-05-07T08:13:03;4.10;;;2.53;;
40827;SDS011;26549;50.918;5.338;2023-05-07T08:17:58;4.10;;;2.10;;
40827;SDS011;26549;50.918;5.338;2023-05-07T08:20:25;5.47;;;2.75;;
40827;SDS011;26549;50.918;5.338;2023-05-07T08:22:51;3.67;;;2.80;;
40827;SDS011;26549;50.918;5.338;2023-05-07T08:25:18;5.03;;;2.90;;
40827;SDS011;26549;50.918;5.338;2023-05-07T08:27:44;6.13;;;2.90;;
40827;SDS011;26549;50.918;5.338;2023-05-07T08:30:11;4.68;;;2.63;;
40827;SDS011;26549;50.918;5.338;2023-05-07T08:32:42;2.80;;;2.28;;
40827;SDS011;26549;50.918;5.338;2023-05-07T08:35:08;6.65;;;2.80;;
40827;SDS011;26549;50.918;5.338;2023-05-07T08:37:35;4.82;;;2.63;;
40827;SDS011;26549;50.918;5.338;2023-05-07T08:40:02;3.50;;;2.88;;
40827;SDS011;26549;50.918;5.338;2023-05-07T08:42:28;5.35;;;3.15;;
40827;SDS011;26549;50.918;5.338;2023-05-07T08:44:56;5.25;;;2.90;;
40827;SDS011;26549;50.918;5.338;2023-05-07T08:47:24;5.30;;;2.80;;
40827;SDS011;26549;50.918;5.338;2023-05-07T08:52:23;6.10;;;2.53;;
40827;SDS011;26549;50.918;5.338;2023-05-07T08:54:49;6.82;;;2.75;;
40827;SDS011;26549;50.918;5.338;2023-05-07T08:57:15;6.22;;;2.80;;
40827;SDS011;26549;50.918;5.338;2023-05-07T08:59:43;4.72;;;2.42;;
40827;SDS011;26549;50.918;5.338;2023-05-07T09:02:12;7.72;;;2.85;;
40827;SDS011;26549;50.918;5.338;2023-05-07T09:04:37;5.90;;;3.53;;
40827;SDS011;26549;50.918;5.338;2023-05-07T09:07:04;6.47;;;3.05;;
40827;SDS011;26549;50.918;5.338;2023-05-07T09:09:31;4.03;;;3.00;;
40827;SDS011;26549;50.918;5.338;2023-05-07T09:11:58;6.15;;;2.67;;
40827;SDS011;26549;50.918;5.338;2023-05-07T09:14:24;6.13;;;3.53;;
40827;SDS011;26549;50.918;5.338;2023-05-07T09:16:53;9.32;;;3.33;;
40827;SDS011;26549;50.918;5.338;2023-05-07T09:19:23;4.68;;;3.00;;
40827;SDS011;26549;50.918;5.338;2023-05-07T09:21:49;5.60;;;2.83;;
40827;SDS011;26549;50.918;5.338;2023-05-07T09:24:22;8.27;;;3.33;;
40827;SDS011;26549;50.918;5.338;2023-05-07T09:26:48;7.82;;;2.85;;
40827;SDS011;26549;50.918;5.338;2023-05-07T09:29:15;7.53;;;3.42;;
40827;SDS011;26549;50.918;5.338;2023-05-07T09:31:42;4.32;;;3.80;;
40827;SDS011;26549;50.918;5.338;2023-05-07T09:34:08;4.45;;;3.15;;
40827;SDS011;26549;50.918;5.338;2023-05-07T09:36:33;6.20;;;3.35;;
40827;SDS011;26549;50.918;5.338;2023-05-07T09:39:00;8.55;;;3.70;;
40827;SDS011;26549;50.918;5.338;2023-05-07T09:41:26;5.63;;;2.97;;
40827;SDS011;26549;50.918;5.338;2023-05-07T09:43:55;7.90;;;3.20;;
40827;SDS011;26549;50.918;5.338;2023-05-07T09:46:25;5.45;;;2.65;;
40827;SDS011;26549;50.918;5.338;2023-05-07T09:48:53;5.95;;;2.45;;
40827;SDS011;26549;50.918;5.338;2023-05-07T09:51:30;6.65;;;2.92;;
40827;SDS011;26549;50.918;5.338;2023-05-07T09:54:04;5.22;;;2.47;;
40827;SDS011;26549;50.918;5.338;2023-05-07T09:56:31;5.93;;;2.72;;
40827;SDS011;26549;50.918;5.338;2023-05-07T09:59:01;5.03;;;3.30;;
40827;SDS011;26549;50.918;5.338;2023-05-07T10:01:29;9.65;;;3.40;;
40827;SDS011;26549;50.918;5.338;2023-05-07T10:03:56;5.65;;;3.17;;
40827;SDS011;26549;50.918;5.338;2023-05-07T10:06:24;7.30;;;3.50;;
40827;SDS011;26549;50.918;5.338;2023-05-07T10:08:53;5.22;;;2.95;;
40827;SDS011;26549;50.918;5.338;2023-05-07T10:11:21;6.93;;;2.95;;
40827;SDS011;26549;50.918;5.338;2023-05-07T10:13:47;4.03;;;2.67;;
40827;SDS011;26549;50.918;5.338;2023-05-07T10:16:13;6.18;;;3.95;;
40827;SDS011;26549;50.918;5.338;2023-05-07T10:18:42;5.85;;;2.72;;
40827;SDS011;26549;50.918;5.338;2023-05-07T10:21:13;4.78;;;2.85;;
40827;SDS011;26549;50.918;5.338;2023-05-07T10:23:45;5.25;;;3.15;;
40827;SDS011;26549;50.918;5.338;2023-05-07T10:26:15;5.82;;;2.72;;
40827;SDS011;26549;50.918;5.338;2023-05-07T10:28:45;7.10;;;2.90;;
40827;SDS011;26549;50.918;5.338;2023-05-07T10:33:56;10.27;;;3.08;;
40827;SDS011;26549;50.918;5.338;2023-05-07T10:36:24;8.88;;;2.97;;
40827;SDS011;26549;50.918;5.338;2023-05-07T10:38:51;6.40;;;2.88;;
40827;SDS011;26549;50.918;5.338;2023-05-07T10:41:17;11.05;;;4.05;;
40827;SDS011;26549;50.918;5.338;2023-05-07T10:43:44;6.90;;;3.30;;
40827;SDS011;26549;50.918;5.338;2023-05-07T10:46:14;5.80;;;3.10;;
40827;SDS011;26549;50.918;5.338;2023-05-07T10:51:30;4.13;;;2.95;;
40827;SDS011;26549;50.918;5.338;2023-05-07T10:56:38;8.13;;;4.53;;
40827;SDS011;26549;50.918;5.338;2023-05-07T11:01:56;5.60;;;2.90;;
40827;SDS011;26549;50.918;5.338;2023-05-07T11:04:23;8.98;;;3.60;;
40827;SDS011;26549;50.918;5.338;2023-05-07T11:15:07;9.05;;;3.05;;
40827;SDS011;26549;50.918;5.338;2023-05-07T11:17:35;8.93;;;4.13;;
40827;SDS011;26549;50.918;5.338;2023-05-07T11:20:20;5.90;;;3.60;;
40827;SDS011;26549;50.918;5.338;2023-05-07T11:22:46;9.98;;;3.42;;
40827;SDS011;26549;50.918;5.338;2023-05-07T11:25:19;7.43;;;4.30;;
40827;SDS011;26549;50.918;5.338;2023-05-07T11:27:45;7.70;;;3.13;;
40827;SDS011;26549;50.918;5.338;2023-05-07T11:30:21;7.38;;;3.03;;
40827;SDS011;26549;50.918;5.338;2023-05-07T11:32:47;7.55;;;3.47;;
40827;SDS011;26549;50.918;5.338;2023-05-07T11:35:13;4.53;;;3.22;;
40827;SDS011;26549;50.918;5.338;2023-05-07T11:37:42;6.55;;;2.75;;
40827;SDS011;26549;50.918;5.338;2023-05-07T11:40:10;5.82;;;2.63;;
40827;SDS011;26549;50.918;5.338;2023-05-07T11:42:39;9.18;;;2.70;;
40827;SDS011;26549;50.918;5.338;2023-05-07T11:45:06;5.95;;;2.65;;
40827;SDS011;26549;50.918;5.338;2023-05-07T11:47:33;7.20;;;2.80;;
40827;SDS011;26549;50.918;5.338;2023-05-07T11:50:06;7.45;;;3.13;;
40827;SDS011;26549;50.918;5.338;2023-05-07T11:52:34;7.75;;;3.60;;
40827;SDS011;26549;50.918;5.338;2023-05-07T11:55:01;9.63;;;3.25;;
40827;SDS011;26549;50.918;5.338;2023-05-07T11:57:29;5.60;;;2.70;;
40827;SDS011;26549;50.918;5.338;2023-05-07T11:59:58;4.32;;;2.75;;
40827;SDS011;26549;50.918;5.338;2023-05-07T12:02:28;8.23;;;2.97;;
40827;SDS011;26549;50.918;5.338;2023-05-07T12:04:57;4.63;;;2.85;;
40827;SDS011;26549;50.918;5.338;2023-05-07T12:07:25;5.50;;;3.30;;
40827;SDS011;26549;50.918;5.338;2023-05-07T12:09:51;6.45;;;3.05;;
40827;SDS011;26549;50.918;5.338;2023-05-07T12:12:18;6.68;;;3.30;;
40827;SDS011;26549;50.918;5.338;2023-05-07T12:14:45;5.40;;;3.20;;
40827;SDS011;26549;50.918;5.338;2023-05-07T12:17:14;5.80;;;3.30;;
40827;SDS011;26549;50.918;5.338;2023-05-07T12:19:41;4.53;;;3.38;;
40827;SDS011;26549;50.918;5.338;2023-05-07T12:22:10;5.90;;;3.83;;
40827;SDS011;26549;50.918;5.338;2023-05-07T12:24:50;5.25;;;3.35;;
40827;SDS011;26549;50.918;5.338;2023-05-07T12:27:23;4.75;;;2.83;;
40827;SDS011;26549;50.918;5.338;2023-05-07T12:29:50;4.65;;;2.83;;
40827;SDS011;26549;50.918;5.338;2023-05-07T12:32:18;6.70;;;2.85;;
40827;SDS011;26549;50.918;5.338;2023-05-07T12:34:45;5.00;;;2.97;;
40827;SDS011;26549;50.918;5.338;2023-05-07T12:37:12;4.85;;;2.03;;
40827;SDS011;26549;50.918;5.338;2023-05-07T12:39:43;5.55;;;2.33;;
40827;SDS011;26549;50.918;5.338;2023-05-07T12:42:16;4.88;;;2.42;;
40827;SDS011;26549;50.918;5.338;2023-05-07T12:44:48;5.82;;;2.33;;
40827;SDS011;26549;50.918;5.338;2023-05-07T12:47:14;3.72;;;1.95;;
40827;SDS011;26549;50.918;5.338;2023-05-07T12:49:40;4.85;;;1.70;;
40827;SDS011;26549;50.918;5.338;2023-05-07T12:52:08;6.10;;;2.28;;
40827;SDS011;26549;50.918;5.338;2023-05-07T12:54:36;5.00;;;2.80;;
40827;SDS011;26549;50.918;5.338;2023-05-07T12:57:07;5.50;;;2.08;;
40827;SDS011;26549;50.918;5.338;2023-05-07T12:59:37;4.82;;;2.08;;
40827;SDS011;26549;50.918;5.338;2023-05-07T13:02:06;4.60;;;2.10;;
40827;SDS011;26549;50.918;5.338;2023-05-07T13:04:32;2.40;;;1.73;;
40827;SDS011;26549;50.918;5.338;2023-05-07T13:06:59;5.35;;;1.85;;
40827;SDS011;26549;50.918;5.338;2023-05-07T13:09:25;6.72;;;2.25;;
40827;SDS011;26549;50.918;5.338;2023-05-07T13:11:51;3.60;;;1.70;;
40827;SDS011;26549;50.918;5.338;2023-05-07T13:14:17;4.00;;;2.20;;
40827;SDS011;26549;50.918;5.338;2023-05-07T13:16:46;4.60;;;1.90;;
40827;SDS011;26549;50.918;5.338;2023-05-07T13:19:13;5.45;;;1.70;;
40827;SDS011;26549;50.918;5.338;2023-05-07T13:21:39;3.60;;;2.00;;
40827;SDS011;26549;50.918;5.338;2023-05-07T13:24:05;4.78;;;2.65;;
40827;SDS011;26549;50.918;5.338;2023-05-07T13:26:31;4.25;;;1.98;;
40827;SDS011;26549;50.918;5.338;2023-05-07T13:28:57;4.78;;;1.88;;
40827;SDS011;26549;50.918;5.338;2023-05-07T13:31:26;4.40;;;2.20;;
40827;SDS011;26549;50.918;5.338;2023-05-07T13:33:53;6.63;;;3.10;;
40827;SDS011;26549;50.918;5.338;2023-05-07T13:36:21;6.38;;;2.60;;
40827;SDS011;26549;50.918;5.338;2023-05-07T13:38:47;6.35;;;2.45;;
40827;SDS011;26549;50.918;5.338;2023-05-07T13:41:14;4.75;;;2.20;;
40827;SDS011;26549;50.918;5.338;2023-05-07T13:43:43;4.85;;;1.58;;
40827;SDS011;26549;50.918;5.338;2023-05-07T13:46:10;6.20;;;1.67;;
40827;SDS011;26549;50.918;5.338;2023-05-07T13:48:36;6.55;;;2.10;;
40827;SDS011;26549;50.918;5.338;2023-05-07T13:51:03;5.07;;;2.42;;
40827;SDS011;26549;50.918;5.338;2023-05-07T13:53:28;5.07;;;2.05;;
40827;SDS011;26549;50.918;5.338;2023-05-07T13:55:54;4.25;;;1.80;;
40827;SDS011;26549;50.918;5.338;2023-05-07T13:58:20;9.27;;;2.75;;
40827;SDS011;26549;50.918;5.338;2023-05-07T14:00:47;5.03;;;1.88;;
40827;SDS011;26549;50.918;5.338;2023-05-07T14:03:12;6.00;;;2.88;;
40827;SDS011;26549;50.918;5.338;2023-05-07T14:05:39;4.00;;;2.13;;
40827;SDS011;26549;50.918;5.338;2023-05-07T14:08:05;4.38;;;1.90;;
40827;SDS011;26549;50.918;5.338;2023-05-07T14:10:32;3.72;;;1.77;;
40827;SDS011;26549;50.918;5.338;2023-05-07T14:13:00;2.17;;;1.50;;
40827;SDS011;26549;50.918;5.338;2023-05-07T14:15:26;5.07;;;1.77;;
40827;SDS011;26549;50.918;5.338;2023-05-07T14:17:52;6.35;;;1.90;;
40827;SDS011;26549;50.918;5.338;2023-05-07T14:20:18;5.55;;;2.33;;
40827;SDS011;26549;50.918;5.338;2023-05-07T14:22:44;2.65;;;1.42;;
40827;SDS011;26549;50.918;5.338;2023-05-07T14:25:10;4.00;;;1.20;;
40827;SDS011;26549;50.918;5.338;2023-05-07T14:27:36;3.83;;;1.30;;
40827;SDS011;26549;50.918;5.338;2023-05-07T14:30:04;2.47;;;1.52;;
40827;SDS011;26549;50.918;5.338;2023-05-07T14:32:32;2.58;;;1.17;;
40827;SDS011;26549;50.918;5.338;2023-05-07T14:34:58;3.45;;;1.30;;
40827;SDS011;26549;50.918;5.338;2023-05-07T14:37:24;2.75;;;1.40;;
40827;SDS011;26549;50.918;5.338;2023-05-07T14:39:50;5.05;;;2.17;;
40827;SDS011;26549;50.918;5.338;2023-05-07T14:42:15;4.60;;;2.15;;
40827;SDS011;26549;50.918;5.338;2023-05-07T14:44:41;5.10;;;2.50;;
40827;SDS011;26549;50.918;5.338;2023-05-07T14:47:07;5.70;;;2.17;;
40827;SDS011;26549;50.918;5.338;2023-05-07T14:49:34;3.55;;;1.05;;
40827;SDS011;26549;50.918;5.338;2023-05-07T14:52:00;4.05;;;1.60;;
40827;SDS011;26549;50.918;5.338;2023-05-07T14:54:26;4.70;;;1.85;;
40827;SDS011;26549;50.918;5.338;2023-05-07T14:56:52;3.60;;;1.25;;
40827;SDS011;26549;50.918;5.338;2023-05-07T14:59:18;3.75;;;1.45;;
40827;SDS011;26549;50.918;5.338;2023-05-07T15:01:48;4.00;;;1.77;;
40827;SDS011;26549;50.918;5.338;2023-05-07T15:04:14;5.30;;;1.58;;
40827;SDS011;26549;50.918;5.338;2023-05-07T15:06:40;2.92;;;1.27;;
40827;SDS011;26549;50.918;5.338;2023-05-07T15:09:06;5.47;;;1.52;;